CheckWX is a tool to help pilots better visualize weather data.  It is not intended as a substitute for an official pre-flight weather briefing.

04:13:04 UTC

KEVV TAF
Evansville Regional Airport
Evansville, Indiana, USA
KEVV 240207Z 2402/2424 11007KT P6SM -RA OVC008 FM240500 12007KT 4SM -RA BR OVC006 FM241800 22007KT 5SM BR OVC006

Jan-24@
02:00 UTC

Jan-24 @ 02:00 UTC

Jan-24@
05:00 UTC

Jan-24 @ 05:00 UTC

KEVV 240207Z 2402/2424 11007KT P6SM -RA OVC008
Wind
  • 110° at 7 KTS
Conditions
Light Rain
Cloud Levels
  • Overcast at 800' AGL

Jan-24@
05:00 UTC

Jan-24 @ 05:00 UTC

Jan-24@
18:00 UTC

Jan-24 @ 18:00 UTC

FM240500 12007KT 4SM -RA BR OVC006

From

From Standard forecast or significant change

Wind
  • 120° at 7 KTS
Conditions
Light Rain, Mist
Cloud Levels
  • Overcast at 600' AGL

Jan-24@
18:00 UTC

Jan-24 @ 18:00 UTC

Jan-25@
00:00 UTC

Jan-25 @ 00:00 UTC

FM241800 22007KT 5SM BR OVC006

From

From Standard forecast or significant change

Wind
  • 220° at 7 KTS
Conditions
Mist
Cloud Levels
  • Overcast at 600' AGL